sensor_id;sensor_type;location;lat;lon;timestamp;pressure;altitude;pressure_sealevel;temperature;humidity
54389;BME280;40975;50.390;8.640;2023-03-21T00:00:22;99303.00;;;6.66;100.00
54389;BME280;40975;50.390;8.640;2023-03-21T00:02:47;99297.59;;;6.68;100.00
54389;BME280;40975;50.390;8.640;2023-03-21T00:05:13;99295.81;;;6.68;100.00
54389;BME280;40975;50.390;8.640;2023-03-21T00:07:38;99292.31;;;6.68;100.00
54389;BME280;40975;50.390;8.640;2023-03-21T00:10:04;99292.53;;;6.65;100.00
54389;BME280;40975;50.390;8.640;2023-03-21T00:12:30;99286.66;;;6.61;100.00
54389;BME280;40975;50.390;8.640;2023-03-21T00:14:57;99282.94;;;6.64;100.00
54389;BME280;40975;50.390;8.640;2023-03-21T00:17:29;99288.56;;;6.59;100.00
54389;BME280;40975;50.390;8.640;2023-03-21T00:19:59;99285.72;;;6.62;100.00
54389;BME280;40975;50.390;8.640;2023-03-21T00:22:26;99281.78;;;6.68;100.00
54389;BME280;40975;50.390;8.640;2023-03-21T00:24:55;99282.13;;;6.63;100.00
54389;BME280;40975;50.390;8.640;2023-03-21T00:27:20;99282.94;;;6.64;100.00
54389;BME280;40975;50.390;8.640;2023-03-21T00:29:47;99274.34;;;6.62;100.00
54389;BME280;40975;50.390;8.640;2023-03-21T00:32:17;99273.38;;;6.63;100.00
54389;BME280;40975;50.390;8.640;2023-03-21T00:34:42;99276.38;;;6.69;100.00
54389;BME280;40975;50.390;8.640;2023-03-21T00:37:09;99268.44;;;6.69;100.00
54389;BME280;40975;50.390;8.640;2023-03-21T00:39:39;99272.69;;;6.72;100.00
54389;BME280;40975;50.390;8.640;2023-03-21T00:42:04;99275.31;;;6.72;100.00
54389;BME280;40975;50.390;8.640;2023-03-21T00:44:29;99274.34;;;6.73;100.00
54389;BME280;40975;50.390;8.640;2023-03-21T00:47:02;99264.63;;;6.74;100.00
54389;BME280;40975;50.390;8.640;2023-03-21T00:49:28;99265.38;;;6.76;100.00
54389;BME280;40975;50.390;8.640;2023-03-21T00:51:58;99265.38;;;6.76;100.00
54389;BME280;40975;50.390;8.640;2023-03-21T00:54:24;99260.31;;;6.73;100.00
54389;BME280;40975;50.390;8.640;2023-03-21T00:56:50;99255.41;;;6.68;100.00
54389;BME280;40975;50.390;8.640;2023-03-21T00:59:15;99246.88;;;6.64;100.00
54389;BME280;40975;50.390;8.640;2023-03-21T01:01:42;99257.31;;;6.66;100.00
54389;BME280;40975;50.390;8.640;2023-03-21T01:04:08;99251.06;;;6.67;100.00
54389;BME280;40975;50.390;8.640;2023-03-21T01:06:38;99247.84;;;6.63;100.00
54389;BME280;40975;50.390;8.640;2023-03-21T01:09:10;99246.88;;;6.64;100.00
54389;BME280;40975;50.390;8.640;2023-03-21T01:11:36;99250.25;;;6.66;100.00
54389;BME280;40975;50.390;8.640;2023-03-21T01:14:02;99244.13;;;6.66;100.00
54389;BME280;40975;50.390;8.640;2023-03-21T01:16:28;99247.63;;;6.66;100.00
54389;BME280;40975;50.390;8.640;2023-03-21T01:18:53;99242.22;;;6.68;100.00
54389;BME280;40975;50.390;8.640;2023-03-21T01:21:19;99253.47;;;6.70;100.00
54389;BME280;40975;50.390;8.640;2023-03-21T01:23:44;99235.25;;;6.67;100.00
54389;BME280;40975;50.390;8.640;2023-03-21T01:26:11;99243.88;;;6.69;100.00
54389;BME280;40975;50.390;8.640;2023-03-21T01:28:38;99242.06;;;6.69;100.00
54389;BME280;40975;50.390;8.640;2023-03-21T01:31:04;99237.88;;;6.67;100.00
54389;BME280;40975;50.390;8.640;2023-03-21T01:33:31;99242.44;;;6.65;100.00
54389;BME280;40975;50.390;8.640;2023-03-21T01:35:57;99240.53;;;6.67;100.00
54389;BME280;40975;50.390;8.640;2023-03-21T01:38:26;99229.25;;;6.65;100.00
54389;BME280;40975;50.390;8.640;2023-03-21T01:40:52;99237.88;;;6.67;100.00
54389;BME280;40975;50.390;8.640;2023-03-21T01:43:31;99237.88;;;6.67;100.00
54389;BME280;40975;50.390;8.640;2023-03-21T01:49:07;99226.75;;;6.63;100.00
54389;BME280;40975;50.390;8.640;2023-03-21T01:51:36;99223.16;;;6.64;100.00
54389;BME280;40975;50.390;8.640;2023-03-21T01:54:03;99219.66;;;6.64;100.00
54389;BME280;40975;50.390;8.640;2023-03-21T01:56:34;99222.19;;;6.65;100.00
54389;BME280;40975;50.390;8.640;2023-03-21T01:59:07;99224.84;;;6.65;100.00
54389;BME280;40975;50.390;8.640;2023-03-21T02:02:10;99218.59;;;6.55;100.00
54389;BME280;40975;50.390;8.640;2023-03-21T02:04:50;99223.84;;;6.55;100.00
54389;BME280;40975;50.390;8.640;2023-03-21T02:07:27;99214.13;;;6.44;100.00
54389;BME280;40975;50.390;8.640;2023-03-21T02:09:59;99217.75;;;6.43;100.00
54389;BME280;40975;50.390;8.640;2023-03-21T02:12:26;99208.50;;;6.37;100.00
54389;BME280;40975;50.390;8.640;2023-03-21T02:14:52;99205.59;;;6.29;100.00
54389;BME280;40975;50.390;8.640;2023-03-21T02:17:34;99202.69;;;6.21;100.00
54389;BME280;40975;50.390;8.640;2023-03-21T02:28:14;99191.31;;;6.09;100.00
54389;BME280;40975;50.390;8.640;2023-03-21T02:33:40;99183.28;;;6.11;100.00
54389;BME280;40975;50.390;8.640;2023-03-21T02:39:39;99191.44;;;6.07;100.00
54389;BME280;40975;50.390;8.640;2023-03-21T02:42:22;99186.50;;;6.03;100.00
54389;BME280;40975;50.390;8.640;2023-03-21T02:44:54;99183.25;;;5.99;100.00
54389;BME280;40975;50.390;8.640;2023-03-21T02:47:33;99183.88;;;6.03;100.00
54389;BME280;40975;50.390;8.640;2023-03-21T02:52:35;99181.78;;;5.95;100.00
54389;BME280;40975;50.390;8.640;2023-03-21T02:55:03;99179.28;;;5.94;100.00
54389;BME280;40975;50.390;8.640;2023-03-21T02:57:35;99180.31;;;5.91;100.00
54389;BME280;40975;50.390;8.640;2023-03-21T03:00:03;99178.38;;;5.82;100.00
54389;BME280;40975;50.390;8.640;2023-03-21T03:02:36;99180.75;;;5.73;100.00
54389;BME280;40975;50.390;8.640;2023-03-21T03:05:11;99176.03;;;5.66;100.00
54389;BME280;40975;50.390;8.640;2023-03-21T03:13:09;99180.22;;;5.33;100.00
54389;BME280;40975;50.390;8.640;2023-03-21T03:21:30;99179.97;;;5.11;100.00
54389;BME280;40975;50.390;8.640;2023-03-21T03:24:12;99173.34;;;5.06;100.00
54389;BME280;40975;50.390;8.640;2023-03-21T03:26:50;99179.06;;;5.00;100.00
54389;BME280;40975;50.390;8.640;2023-03-21T03:29:19;99169.69;;;4.95;100.00
54389;BME280;40975;50.390;8.640;2023-03-21T03:31:55;99170.88;;;4.91;100.00
54389;BME280;40975;50.390;8.640;2023-03-21T03:34:33;99166.28;;;4.82;100.00
54389;BME280;40975;50.390;8.640;2023-03-21T03:37:06;99167.75;;;4.73;100.00
54389;BME280;40975;50.390;8.640;2023-03-21T03:39:40;99161.34;;;4.64;100.00
54389;BME280;40975;50.390;8.640;2023-03-21T03:42:14;99171.34;;;4.59;100.00
54389;BME280;40975;50.390;8.640;2023-03-21T03:44:44;99166.75;;;4.50;100.00
54389;BME280;40975;50.390;8.640;2023-03-21T03:47:37;99170.97;;;4.40;100.00
54389;BME280;40975;50.390;8.640;2023-03-21T03:52:36;99167.69;;;4.36;100.00
54389;BME280;40975;50.390;8.640;2023-03-21T03:55:15;99154.25;;;4.28;100.00
54389;BME280;40975;50.390;8.640;2023-03-21T03:57:44;99154.75;;;4.33;100.00
54389;BME280;40975;50.390;8.640;2023-03-21T04:00:11;99155.81;;;4.30;100.00
54389;BME280;40975;50.390;8.640;2023-03-21T04:02:43;99152.34;;;4.30;100.00
54389;BME280;40975;50.390;8.640;2023-03-21T04:05:12;99149.09;;;4.26;100.00
54389;BME280;40975;50.390;8.640;2023-03-21T04:07:38;99156.25;;;4.24;100.00
54389;BME280;40975;50.390;8.640;2023-03-21T04:10:04;99153.19;;;4.30;100.00
54389;BME280;40975;50.390;8.640;2023-03-21T04:12:36;99150.13;;;4.36;100.00
54389;BME280;40975;50.390;8.640;2023-03-21T04:15:15;99153.31;;;4.42;100.00
54389;BME280;40975;50.390;8.640;2023-03-21T04:17:54;99144.56;;;4.41;100.00
54389;BME280;40975;50.390;8.640;2023-03-21T04:20:21;99144.78;;;4.38;100.00
54389;BME280;40975;50.390;8.640;2023-03-21T04:22:47;99148.13;;;4.40;100.00
54389;BME280;40975;50.390;8.640;2023-03-21T04:25:13;99150.13;;;4.49;100.00
54389;BME280;40975;50.390;8.640;2023-03-21T04:27:40;99139.31;;;4.54;100.00
54389;BME280;40975;50.390;8.640;2023-03-21T04:30:28;99139.28;;;4.67;100.00
54389;BME280;40975;50.390;8.640;2023-03-21T04:33:02;99128.31;;;4.73;100.00
54389;BME280;40975;50.390;8.640;2023-03-21T04:35:30;99128.00;;;4.78;100.00
54389;BME280;40975;50.390;8.640;2023-03-21T04:37:56;99135.34;;;4.86;100.00
54389;BME280;40975;50.390;8.640;2023-03-21T04:40:21;99128.81;;;4.91;100.00
54389;BME280;40975;50.390;8.640;2023-03-21T04:42:48;99138.03;;;4.97;100.00
54389;BME280;40975;50.390;8.640;2023-03-21T04:45:15;99128.97;;;5.01;100.00
54389;BME280;40975;50.390;8.640;2023-03-21T04:47:43;99129.38;;;5.08;100.00
54389;BME280;40975;50.390;8.640;2023-03-21T04:50:09;99133.34;;;5.13;100.00
54389;BME280;40975;50.390;8.640;2023-03-21T04:52:35;99134.47;;;5.22;100.00
54389;BME280;40975;50.390;8.640;2023-03-21T04:55:00;99130.78;;;5.25;100.00
54389;BME280;40975;50.390;8.640;2023-03-21T04:57:26;99131.16;;;5.32;100.00
54389;BME280;40975;50.390;8.640;2023-03-21T04:59:51;99126.50;;;5.35;100.00
54389;BME280;40975;50.390;8.640;2023-03-21T05:02:17;99131.44;;;5.40;100.00
54389;BME280;40975;50.390;8.640;2023-03-21T05:04:42;99119.22;;;5.39;100.00
54389;BME280;40975;50.390;8.640;2023-03-21T05:07:08;99127.00;;;5.40;100.00
54389;BME280;40975;50.390;8.640;2023-03-21T05:09:33;99124.50;;;5.39;100.00
54389;BME280;40975;50.390;8.640;2023-03-21T05:11:58;99125.03;;;5.31;100.00
54389;BME280;40975;50.390;8.640;2023-03-21T05:14:26;99122.88;;;5.25;100.00
54389;BME280;40975;50.390;8.640;2023-03-21T05:16:51;99122.69;;;5.15;100.00
54389;BME280;40975;50.390;8.640;2023-03-21T05:19:29;99124.84;;;5.10;100.00
54389;BME280;40975;50.390;8.640;2023-03-21T05:22:01;99119.06;;;5.05;100.00
54389;BME280;40975;50.390;8.640;2023-03-21T05:24:29;99122.88;;;5.01;100.00
54389;BME280;40975;50.390;8.640;2023-03-21T05:26:55;99119.50;;;4.98;100.00
54389;BME280;40975;50.390;8.640;2023-03-21T05:29:28;99120.56;;;4.96;100.00
54389;BME280;40975;50.390;8.640;2023-03-21T05:31:59;99117.88;;;4.85;100.00
54389;BME280;40975;50.390;8.640;2023-03-21T05:34:25;99115.69;;;4.78;100.00
54389;BME280;40975;50.390;8.640;2023-03-21T05:36:51;99116.66;;;4.77;100.00
54389;BME280;40975;50.390;8.640;2023-03-21T05:39:18;99113.28;;;4.75;100.00
54389;BME280;40975;50.390;8.640;2023-03-21T05:41:56;99112.75;;;4.70;100.00
54389;BME280;40975;50.390;8.640;2023-03-21T05:44:22;99120.97;;;4.65;100.00
54389;BME280;40975;50.390;8.640;2023-03-21T05:46:48;99122.25;;;4.60;100.00
54389;BME280;40975;50.390;8.640;2023-03-21T05:49:13;99119.53;;;4.61;100.00
54389;BME280;40975;50.390;8.640;2023-03-21T05:51:40;99114.69;;;4.68;100.00
54389;BME280;40975;50.390;8.640;2023-03-21T05:54:05;99113.81;;;4.67;100.00
54389;BME280;40975;50.390;8.640;2023-03-21T05:56:32;99121.38;;;4.72;100.00
54389;BME280;40975;50.390;8.640;2023-03-21T05:59:02;99116.84;;;4.74;100.00
54389;BME280;40975;50.390;8.640;2023-03-21T06:01:31;99118.22;;;4.80;100.00
54389;BME280;40975;50.390;8.640;2023-03-21T06:04:06;99129.88;;;4.89;100.00
54389;BME280;40975;50.390;8.640;2023-03-21T06:06:32;99130.06;;;4.86;100.00
54389;BME280;40975;50.390;8.640;2023-03-21T06:08:59;99128.75;;;5.04;100.00
54389;BME280;40975;50.390;8.640;2023-03-21T06:11:28;99135.19;;;5.24;100.00
54389;BME280;40975;50.390;8.640;2023-03-21T06:14:13;99134.69;;;5.43;100.00
54389;BME280;40975;50.390;8.640;2023-03-21T06:16:40;99130.91;;;5.59;100.00
54389;BME280;40975;50.390;8.640;2023-03-21T06:19:06;99129.16;;;5.71;100.00
54389;BME280;40975;50.390;8.640;2023-03-21T06:21:42;99132.88;;;5.80;100.00
54389;BME280;40975;50.390;8.640;2023-03-21T06:24:08;99127.63;;;5.91;100.00
54389;BME280;40975;50.390;8.640;2023-03-21T06:26:34;99142.94;;;6.10;100.00
54389;BME280;40975;50.390;8.640;2023-03-21T06:29:00;99142.22;;;6.31;100.00
54389;BME280;40975;50.390;8.640;2023-03-21T06:31:25;99143.94;;;6.43;100.00
54389;BME280;40975;50.390;8.640;2023-03-21T06:33:56;99144.16;;;6.63;100.00
54389;BME280;40975;50.390;8.640;2023-03-21T06:36:22;99144.25;;;6.73;100.00
54389;BME280;40975;50.390;8.640;2023-03-21T06:38:48;99147.97;;;6.70;100.00
54389;BME280;40975;50.390;8.640;2023-03-21T06:41:14;99142.34;;;6.75;100.00
54389;BME280;40975;50.390;8.640;2023-03-21T06:43:44;99152.41;;;6.69;100.00
54389;BME280;40975;50.390;8.640;2023-03-21T06:46:10;99152.16;;;6.73;100.00
54389;BME280;40975;50.390;8.640;2023-03-21T06:48:37;99154.66;;;6.85;100.00
54389;BME280;40975;50.390;8.640;2023-03-21T06:51:14;99153.47;;;6.90;100.00
54389;BME280;40975;50.390;8.640;2023-03-21T06:53:49;99137.03;;;6.97;100.00
54389;BME280;40975;50.390;8.640;2023-03-21T06:56:32;99146.22;;;7.14;100.00
54389;BME280;40975;50.390;8.640;2023-03-21T06:58:57;99132.75;;;7.29;100.00
54389;BME280;40975;50.390;8.640;2023-03-21T07:01:42;99138.41;;;7.57;100.00
54389;BME280;40975;50.390;8.640;2023-03-21T07:04:08;99143.03;;;8.28;100.00
54389;BME280;40975;50.390;8.640;2023-03-21T07:06:34;99137.53;;;8.62;100.00
54389;BME280;40975;50.390;8.640;2023-03-21T07:09:00;99149.19;;;8.60;100.00
54389;BME280;40975;50.390;8.640;2023-03-21T07:11:26;99138.19;;;9.05;100.00
54389;BME280;40975;50.390;8.640;2023-03-21T07:13:52;99138.78;;;9.68;100.00
54389;BME280;40975;50.390;8.640;2023-03-21T07:16:17;99134.28;;;9.98;100.00
54389;BME280;40975;50.390;8.640;2023-03-21T07:18:43;99137.66;;;9.70;100.00
54389;BME280;40975;50.390;8.640;2023-03-21T07:21:10;99152.19;;;9.66;100.00
54389;BME280;40975;50.390;8.640;2023-03-21T07:23:36;99149.25;;;9.40;100.00
54389;BME280;40975;50.390;8.640;2023-03-21T07:26:03;99146.47;;;9.31;100.00
54389;BME280;40975;50.390;8.640;2023-03-21T07:28:29;99155.38;;;9.30;100.00
54389;BME280;40975;50.390;8.640;2023-03-21T07:30:57;99152.19;;;9.46;100.00
54389;BME280;40975;50.390;8.640;2023-03-21T07:33:24;99156.22;;;9.80;100.00
54389;BME280;40975;50.390;8.640;2023-03-21T07:35:53;99162.63;;;9.87;100.00
54389;BME280;40975;50.390;8.640;2023-03-21T07:38:19;99153.81;;;9.96;100.00
54389;BME280;40975;50.390;8.640;2023-03-21T07:40:46;99149.63;;;10.04;100.00
54389;BME280;40975;50.390;8.640;2023-03-21T07:43:12;99153.00;;;10.53;100.00
54389;BME280;40975;50.390;8.640;2023-03-21T07:45:40;99139.75;;;11.09;98.44
54389;BME280;40975;50.390;8.640;2023-03-21T07:48:07;99139.91;;;11.08;95.72
54389;BME280;40975;50.390;8.640;2023-03-21T07:50:32;99147.19;;;11.06;97.06
54389;BME280;40975;50.390;8.640;2023-03-21T07:52:58;99145.88;;;10.54;95.69
54389;BME280;40975;50.390;8.640;2023-03-21T07:55:23;99146.19;;;10.79;96.90
54389;BME280;40975;50.390;8.640;2023-03-21T07:57:49;99155.50;;;10.93;97.30
54389;BME280;40975;50.390;8.640;2023-03-21T08:00:17;99151.06;;;10.83;97.66
54389;BME280;40975;50.390;8.640;2023-03-21T08:02:54;99144.22;;;11.09;97.18
54389;BME280;40975;50.390;8.640;2023-03-21T08:05:21;99147.75;;;11.63;97.90
54389;BME280;40975;50.390;8.640;2023-03-21T08:07:47;99137.13;;;12.08;92.32
54389;BME280;40975;50.390;8.640;2023-03-21T08:10:13;99149.72;;;11.97;91.97
54389;BME280;40975;50.390;8.640;2023-03-21T08:12:38;99146.88;;;11.81;94.02
54389;BME280;40975;50.390;8.640;2023-03-21T08:15:04;99147.91;;;11.44;94.53
54389;BME280;40975;50.390;8.640;2023-03-21T08:17:30;99147.09;;;11.15;96.90
54389;BME280;40975;50.390;8.640;2023-03-21T08:19:55;99146.72;;;11.10;98.92
54389;BME280;40975;50.390;8.640;2023-03-21T08:22:20;99151.56;;;10.97;100.00
54389;BME280;40975;50.390;8.640;2023-03-21T08:24:46;99146.19;;;10.79;100.00
54389;BME280;40975;50.390;8.640;2023-03-21T08:27:11;99148.47;;;10.73;100.00
54389;BME280;40975;50.390;8.640;2023-03-21T08:29:36;99149.06;;;10.67;100.00
54389;BME280;40975;50.390;8.640;2023-03-21T08:32:05;99147.41;;;10.56;100.00
54389;BME280;40975;50.390;8.640;2023-03-21T08:34:30;99143.69;;;10.49;100.00
54389;BME280;40975;50.390;8.640;2023-03-21T08:36:55;99146.06;;;10.52;100.00
54389;BME280;40975;50.390;8.640;2023-03-21T08:39:21;99156.44;;;10.64;100.00
54389;BME280;40975;50.390;8.640;2023-03-21T08:41:48;99151.41;;;10.70;100.00
54389;BME280;40975;50.390;8.640;2023-03-21T08:44:13;99152.53;;;10.96;100.00
54389;BME280;40975;50.390;8.640;2023-03-21T08:46:41;99145.75;;;11.11;100.00
54389;BME280;40975;50.390;8.640;2023-03-21T08:49:06;99154.00;;;11.08;98.89
54389;BME280;40975;50.390;8.640;2023-03-21T08:51:31;99155.53;;;11.11;100.00
54389;BME280;40975;50.390;8.640;2023-03-21T08:53:58;99152.13;;;11.18;99.01
54389;BME280;40975;50.390;8.640;2023-03-21T08:56:23;99148.13;;;11.32;99.55
54389;BME280;40975;50.390;8.640;2023-03-21T08:58:48;99152.81;;;11.39;100.00
54389;BME280;40975;50.390;8.640;2023-03-21T09:01:14;99155.09;;;11.33;100.00
54389;BME280;40975;50.390;8.640;2023-03-21T09:03:39;99152.53;;;11.42;100.00
54389;BME280;40975;50.390;8.640;2023-03-21T09:06:05;99146.31;;;11.51;100.00
54389;BME280;40975;50.390;8.640;2023-03-21T09:08:30;99140.69;;;11.54;100.00
54389;BME280;40975;50.390;8.640;2023-03-21T09:10:56;99140.75;;;11.44;100.00
54389;BME280;40975;50.390;8.640;2023-03-21T09:13:22;99143.28;;;11.46;100.00
54389;BME280;40975;50.390;8.640;2023-03-21T09:15:48;99146.16;;;11.34;100.00
54389;BME280;40975;50.390;8.640;2023-03-21T09:18:13;99138.78;;;11.46;100.00
54389;BME280;40975;50.390;8.640;2023-03-21T09:20:41;99144.78;;;11.48;100.00
54389;BME280;40975;50.390;8.640;2023-03-21T09:23:07;99138.19;;;11.53;100.00
54389;BME280;40975;50.390;8.640;2023-03-21T09:25:33;99146.75;;;11.46;100.00
54389;BME280;40975;50.390;8.640;2023-03-21T09:28:00;99146.31;;;11.51;100.00
54389;BME280;40975;50.390;8.640;2023-03-21T09:30:31;99136.81;;;11.48;100.00
54389;BME280;40975;50.390;8.640;2023-03-21T09:33:04;99136.56;;;11.42;100.00
54389;BME280;40975;50.390;8.640;2023-03-21T09:35:37;99135.06;;;11.39;100.00
54389;BME280;40975;50.390;8.640;2023-03-21T09:38:03;99143.03;;;11.39;100.00
54389;BME280;40975;50.390;8.640;2023-03-21T09:40:58;99144.94;;;11.47;100.00
54389;BME280;40975;50.390;8.640;2023-03-21T09:46:37;99138.94;;;11.45;97.66
54389;BME280;40975;50.390;8.640;2023-03-21T09:49:10;99130.91;;;11.37;95.76
54389;BME280;40975;50.390;8.640;2023-03-21T09:51:40;99144.19;;;11.37;96.34
54389;BME280;40975;50.390;8.640;2023-03-21T09:54:16;99142.59;;;11.44;95.87
54389;BME280;40975;50.390;8.640;2023-03-21T09:56:43;99135.88;;;11.40;95.99
54389;BME280;40975;50.390;8.640;2023-03-21T09:59:18;99142.41;;;11.45;95.08
54389;BME280;40975;50.390;8.640;2023-03-21T10:01:46;99140.63;;;11.46;94.95
54389;BME280;40975;50.390;8.640;2023-03-21T10:04:14;99140.09;;;11.42;93.37
54389;BME280;40975;50.390;8.640;2023-03-21T10:06:49;99134.44;;;11.45;93.54
54389;BME280;40975;50.390;8.640;2023-03-21T10:09:20;99141.91;;;11.42;93.30
54389;BME280;40975;50.390;8.640;2023-03-21T10:12:13;99140.00;;;11.52;94.47
54389;BME280;40975;50.390;8.640;2023-03-21T10:14:43;99142.41;;;11.45;95.43
54389;BME280;40975;50.390;8.640;2023-03-21T10:17:26;99140.75;;;11.44;97.05
54389;BME280;40975;50.390;8.640;2023-03-21T10:20:06;99133.69;;;11.53;96.88
54389;BME280;40975;50.390;8.640;2023-03-21T10:22:36;99137.28;;;11.62;97.52
54389;BME280;40975;50.390;8.640;2023-03-21T10:25:02;99131.50;;;11.66;96.79
54389;BME280;40975;50.390;8.640;2023-03-21T10:27:27;99132.16;;;11.69;96.85
54389;BME280;40975;50.390;8.640;2023-03-21T10:29:53;99135.16;;;11.65;98.03
54389;BME280;40975;50.390;8.640;2023-03-21T10:32:21;99128.56;;;11.78;95.40
54389;BME280;40975;50.390;8.640;2023-03-21T10:34:50;99132.03;;;11.70;96.09
54389;BME280;40975;50.390;8.640;2023-03-21T10:37:17;99133.75;;;11.79;96.96
54389;BME280;40975;50.390;8.640;2023-03-21T10:39:51;99131.31;;;11.86;97.59
54389;BME280;40975;50.390;8.640;2023-03-21T10:44:48;99136.88;;;11.75;98.19
54389;BME280;40975;50.390;8.640;2023-03-21T10:47:25;99136.66;;;11.50;99.02
54389;BME280;40975;50.390;8.640;2023-03-21T10:49:51;99140.38;;;11.39;100.00
54389;BME280;40975;50.390;8.640;2023-03-21T10:52:20;99140.91;;;11.43;100.00
54389;BME280;40975;50.390;8.640;2023-03-21T10:54:47;99135.38;;;11.36;100.00
54389;BME280;40975;50.390;8.640;2023-03-21T10:57:21;99135.91;;;11.22;100.00
54389;BME280;40975;50.390;8.640;2023-03-21T10:59:53;99140.69;;;11.36;100.00
54389;BME280;40975;50.390;8.640;2023-03-21T11:02:32;99140.84;;;11.34;100.00
54389;BME280;40975;50.390;8.640;2023-03-21T11:05:19;99135.38;;;11.36;100.00
54389;BME280;40975;50.390;8.640;2023-03-21T11:07:47;99140.59;;;11.28;100.00
54389;BME280;40975;50.390;8.640;2023-03-21T11:10:30;99142.63;;;11.34;100.00
54389;BME280;40975;50.390;8.640;2023-03-21T11:12:56;99142.06;;;11.40;100.00
54389;BME280;40975;50.390;8.640;2023-03-21T11:18:38;99137.72;;;11.39;100.00
54389;BME280;40975;50.390;8.640;2023-03-21T11:21:06;99130.13;;;11.44;100.00
54389;BME280;40975;50.390;8.640;2023-03-21T11:23:34;99138.09;;;11.44;100.00
54389;BME280;40975;50.390;8.640;2023-03-21T11:26:02;99132.94;;;11.43;100.00
54389;BME280;40975;50.390;8.640;2023-03-21T11:28:36;99139.31;;;11.32;100.00
54389;BME280;40975;50.390;8.640;2023-03-21T11:31:03;99140.97;;;11.33;100.00
54389;BME280;40975;50.390;8.640;2023-03-21T11:33:37;99126.78;;;11.24;100.00
54389;BME280;40975;50.390;8.640;2023-03-21T11:36:31;99131.50;;;11.12;100.00
54389;BME280;40975;50.390;8.640;2023-03-21T11:39:30;99134.25;;;10.93;100.00
54389;BME280;40975;50.390;8.640;2023-03-21T11:41:56;99131.28;;;10.96;100.00
54389;BME280;40975;50.390;8.640;2023-03-21T11:44:33;99124.47;;;10.93;100.00
54389;BME280;40975;50.390;8.640;2023-03-21T11:46:58;99126.38;;;10.73;100.00
54389;BME280;40975;50.390;8.640;2023-03-21T11:49:25;99125.09;;;10.77;100.00
54389;BME280;40975;50.390;8.640;2023-03-21T11:52:05;99118.72;;;10.70;100.00
54389;BME280;40975;50.390;8.640;2023-03-21T11:55:02;99120.59;;;10.87;100.00
54389;BME280;40975;50.390;8.640;2023-03-21T11:57:58;99118.38;;;10.83;100.00
54389;BME280;40975;50.390;8.640;2023-03-21T12:00:33;99117.50;;;10.64;100.00
54389;BME280;40975;50.390;8.640;2023-03-21T12:03:14;99114.50;;;10.77;100.00
54389;BME280;40975;50.390;8.640;2023-03-21T12:05:50;99112.03;;;10.66;100.00
54389;BME280;40975;50.390;8.640;2023-03-21T12:14:02;99096.56;;;10.61;100.00
54389;BME280;40975;50.390;8.640;2023-03-21T12:16:48;99100.44;;;10.67;100.00
54389;BME280;40975;50.390;8.640;2023-03-21T12:24:56;99095.69;;;10.33;100.00
54389;BME280;40975;50.390;8.640;2023-03-21T12:27:53;99092.47;;;10.29;100.00
54389;BME280;40975;50.390;8.640;2023-03-21T12:30:44;99085.69;;;10.17;100.00
54389;BME280;40975;50.390;8.640;2023-03-21T12:36:52;99091.34;;;10.41;100.00
54389;BME280;40975;50.390;8.640;2023-03-21T12:41:49;99083.34;;;10.51;100.00
54389;BME280;40975;50.390;8.640;2023-03-21T12:44:20;99078.28;;;10.58;100.00
54389;BME280;40975;50.390;8.640;2023-03-21T12:49:31;99077.28;;;10.59;100.00
54389;BME280;40975;50.390;8.640;2023-03-21T12:52:23;99078.38;;;10.29;100.00
54389;BME280;40975;50.390;8.640;2023-03-21T12:54:58;99070.69;;;10.35;100.00
54389;BME280;40975;50.390;8.640;2023-03-21T12:57:38;99067.59;;;10.40;100.00
54389;BME280;40975;50.390;8.640;2023-03-21T13:00:24;99063.69;;;10.34;100.00
54389;BME280;40975;50.390;8.640;2023-03-21T13:02:58;99057.06;;;10.20;100.00
54389;BME280;40975;50.390;8.640;2023-03-21T13:05:32;99055.09;;;10.22;100.00
54389;BME280;40975;50.390;8.640;2023-03-21T13:08:19;99057.06;;;10.20;100.00
54389;BME280;40975;50.390;8.640;2023-03-21T13:10:47;99050.84;;;10.02;100.00
54389;BME280;40975;50.390;8.640;2023-03-21T13:16:05;99054.91;;;9.86;100.00
54389;BME280;40975;50.390;8.640;2023-03-21T13:21:18;99055.22;;;9.83;100.00
54389;BME280;40975;50.390;8.640;2023-03-21T13:24:02;99049.50;;;9.88;100.00
54389;BME280;40975;50.390;8.640;2023-03-21T13:26:48;99049.13;;;9.73;100.00
54389;BME280;40975;50.390;8.640;2023-03-21T13:29:33;99046.19;;;9.66;100.00
54389;BME280;40975;50.390;8.640;2023-03-21T13:32:09;99042.84;;;9.54;100.00
54389;BME280;40975;50.390;8.640;2023-03-21T13:34:40;99038.41;;;9.45;100.00
54389;BME280;40975;50.390;8.640;2023-03-21T13:37:12;99040.63;;;9.49;100.00
54389;BME280;40975;50.390;8.640;2023-03-21T13:39:42;99028.94;;;9.42;100.00
54389;BME280;40975;50.390;8.640;2023-03-21T13:42:16;99024.59;;;9.51;100.00
54389;BME280;40975;50.390;8.640;2023-03-21T13:44:48;99030.28;;;9.66;100.00
54389;BME280;40975;50.390;8.640;2023-03-21T13:50:52;99017.16;;;9.64;100.00
54389;BME280;40975;50.390;8.640;2023-03-21T13:53:24;99017.31;;;9.63;100.00
54389;BME280;40975;50.390;8.640;2023-03-21T13:56:08;99011.19;;;9.53;100.00
54389;BME280;40975;50.390;8.640;2023-03-21T13:58:39;99007.44;;;9.55;100.00
54389;BME280;40975;50.390;8.640;2023-03-21T14:04:16;99004.28;;;9.22;100.00
54389;BME280;40975;50.390;8.640;2023-03-21T14:06:46;98994.97;;;9.08;100.00
54389;BME280;40975;50.390;8.640;2023-03-21T14:09:21;98992.31;;;8.98;100.00
54389;BME280;40975;50.390;8.640;2023-03-21T14:11:50;98986.31;;;8.96;100.00
54389;BME280;40975;50.390;8.640;2023-03-21T14:14:16;98986.19;;;8.98;100.00
54389;BME280;40975;50.390;8.640;2023-03-21T14:16:43;98984.22;;;9.00;100.00
54389;BME280;40975;50.390;8.640;2023-03-21T14:19:10;98982.00;;;9.05;100.00
54389;BME280;40975;50.390;8.640;2023-03-21T14:21:36;98984.91;;;9.02;100.00
54389;BME280;40975;50.390;8.640;2023-03-21T14:24:04;98983.25;;;9.11;100.00
54389;BME280;40975;50.390;8.640;2023-03-21T14:26:33;98978.09;;;8.99;100.00
54389;BME280;40975;50.390;8.640;2023-03-21T14:29:02;98977.84;;;9.02;100.00